createdAt,value
2022-08-05T14:55:40.370Z,2.60
2022-08-05T14:58:27.027Z,2.67
2022-08-05T15:01:24.225Z,2.60
2022-08-05T15:04:27.398Z,2.70
2022-08-05T15:08:09.113Z,2.70
2022-08-05T15:10:28.654Z,2.70
2022-08-05T15:13:19.148Z,3.00
2022-08-05T15:16:15.408Z,3.30
2022-08-05T15:19:03.747Z,2.90
2022-08-05T15:21:50.608Z,3.00
2022-08-05T15:24:39.736Z,2.70
2022-08-05T15:27:26.637Z,2.83
2022-08-05T15:30:24.007Z,3.07
2022-08-05T15:33:10.555Z,3.10
2022-08-05T15:35:59.264Z,3.23
2022-08-05T15:38:50.601Z,2.83
2022-08-05T15:41:59.051Z,3.20
2022-08-05T15:44:46.114Z,3.00
2022-08-05T15:47:35.706Z,2.97
2022-08-05T15:50:25.193Z,2.67
2022-08-05T15:53:12.707Z,3.00
2022-08-05T15:56:02.634Z,2.90
2022-08-05T15:58:50.962Z,2.30
2022-08-05T16:01:39.805Z,3.10
2022-08-05T16:04:40.809Z,3.00
2022-08-05T16:07:29.622Z,3.17
2022-08-05T16:10:16.681Z,3.10
2022-08-05T16:13:09.959Z,3.33
2022-08-05T16:15:57.677Z,3.00
2022-08-05T16:18:52.451Z,2.97
2022-08-05T16:21:58.576Z,3.13
2022-08-05T16:24:51.680Z,3.20
2022-08-05T16:28:00.195Z,3.10
2022-08-05T16:30:46.291Z,3.00
2022-08-05T16:33:41.622Z,3.07
2022-08-05T16:36:28.725Z,3.57
2022-08-05T16:39:17.196Z,3.20
2022-08-05T16:42:14.655Z,3.50
2022-08-05T16:46:02.911Z,3.70
2022-08-05T16:48:11.659Z,3.60
2022-08-05T16:51:12.388Z,4.30
2022-08-05T16:54:10.652Z,3.60
2022-08-05T16:57:17.939Z,3.80
2022-08-05T17:00:12.032Z,3.20
2022-08-05T17:03:02.911Z,3.63
2022-08-05T17:08:55.232Z,3.30
2022-08-05T17:11:48.438Z,2.60
2022-08-05T17:14:38.350Z,2.30
2022-08-05T17:17:42.047Z,2.20
2022-08-05T17:20:30.036Z,1.93
2022-08-05T17:24:03.581Z,1.90
2022-08-05T17:26:23.062Z,1.83
2022-08-05T17:29:10.418Z,1.60
2022-08-05T17:31:59.376Z,1.60
2022-08-05T17:34:48.226Z,1.97
2022-08-05T17:37:40.280Z,1.80
2022-08-05T17:40:31.666Z,1.87
2022-08-05T17:43:18.464Z,1.50
2022-08-05T17:46:25.101Z,1.60
2022-08-05T17:49:13.180Z,1.33
2022-08-05T17:52:01.457Z,1.50
2022-08-05T17:54:48.275Z,1.33
2022-08-05T17:57:35.107Z,1.43
2022-08-05T18:00:29.512Z,1.30
2022-08-05T18:03:56.315Z,1.57
2022-08-05T18:06:29.434Z,1.60
2022-08-05T18:09:59.161Z,1.60
2022-08-05T18:12:34.963Z,1.63
2022-08-05T18:15:22.034Z,1.50
2022-08-05T18:18:11.298Z,1.47
2022-08-05T18:20:58.361Z,1.53
2022-08-05T18:23:49.482Z,1.37
2022-08-05T18:26:40.643Z,1.63
2022-08-05T18:29:40.923Z,1.50
2022-08-05T18:32:29.674Z,1.17
2022-08-05T18:35:17.238Z,1.10
2022-08-05T18:38:04.912Z,1.43
2022-08-05T18:41:57.573Z,1.40
2022-08-05T18:44:06.312Z,1.10
2022-08-05T18:46:54.709Z,1.30
2022-08-05T18:50:00.538Z,1.20
2022-08-05T18:52:51.199Z,1.30
2022-08-05T18:55:38.461Z,1.03
2022-08-05T18:58:47.408Z,1.00
2022-08-05T19:01:47.963Z,1.33
2022-08-05T19:05:01.005Z,1.10
2022-08-05T19:07:50.851Z,1.13
2022-08-05T19:10:38.308Z,1.10
2022-08-05T19:13:24.996Z,1.10
2022-08-05T19:16:25.293Z,1.20
2022-08-05T19:19:15.776Z,1.23
2022-08-05T19:22:07.540Z,1.17
2022-08-05T19:25:00.707Z,1.40
2022-08-05T19:27:49.787Z,1.30
2022-08-05T19:30:38.633Z,1.10
2022-08-05T19:33:35.272Z,1.27
2022-08-05T19:36:22.773Z,1.37
2022-08-05T19:39:09.573Z,1.30
2022-08-05T19:42:06.102Z,1.77
2022-08-05T19:44:55.591Z,1.27
2022-08-05T19:47:42.586Z,1.30
2022-08-05T19:50:31.379Z,1.30
2022-08-05T19:54:04.306Z,1.20
2022-08-05T19:56:29.742Z,1.30
2022-08-05T19:59:53.842Z,1.93
2022-08-05T20:02:26.342Z,1.30
2022-08-05T20:05:16.627Z,1.80
2022-08-05T20:08:12.838Z,1.67
2022-08-05T20:11:01.308Z,1.33
2022-08-05T20:13:58.058Z,1.47
2022-08-05T20:16:46.438Z,1.60
2022-08-05T20:19:36.103Z,1.53
2022-08-05T20:22:48.906Z,1.57
2022-08-05T20:25:39.683Z,1.60
2022-08-05T20:28:27.472Z,1.77
2022-08-05T20:31:14.422Z,1.63
2022-08-05T20:34:03.616Z,1.60
2022-08-05T20:36:51.067Z,1.90
2022-08-05T20:39:38.191Z,1.57
2022-08-05T20:42:28.360Z,1.77
2022-08-05T20:45:15.160Z,1.57
2022-08-05T20:48:02.696Z,1.27
2022-08-05T20:50:49.740Z,1.60
2022-08-05T20:53:41.039Z,1.57
2022-08-05T20:56:34.141Z,1.70
2022-08-05T20:59:46.095Z,1.37
2022-08-05T21:02:39.576Z,1.37
2022-08-05T21:05:53.372Z,1.40
2022-08-05T21:08:43.987Z,1.50
2022-08-05T21:12:06.623Z,1.50
2022-08-05T21:14:39.106Z,1.83
2022-08-05T21:17:27.124Z,1.40
2022-08-05T21:20:15.404Z,1.50
2022-08-05T21:23:20.184Z,1.77
2022-08-05T21:26:14.251Z,1.73
2022-08-05T21:29:03.610Z,1.43
2022-08-05T21:31:52.194Z,1.33
2022-08-05T21:34:38.836Z,1.50
2022-08-05T21:37:28.196Z,1.70
2022-08-05T21:40:16.599Z,1.53
2022-08-05T21:43:05.649Z,1.90
2022-08-05T21:45:57.787Z,1.60
2022-08-05T21:48:48.743Z,1.50
2022-08-05T21:52:21.871Z,1.40
2022-08-05T21:54:42.421Z,1.33
2022-08-05T21:57:31.336Z,1.57
2022-08-05T22:00:19.530Z,1.80
2022-08-05T22:03:06.327Z,1.50
2022-08-05T22:05:58.189Z,1.70
2022-08-05T22:08:44.870Z,1.57
2022-08-05T22:11:38.302Z,1.53
2022-08-05T22:14:35.767Z,1.60
2022-08-05T22:17:25.362Z,1.57
2022-08-05T22:20:15.541Z,1.80
2022-08-05T22:23:22.166Z,1.60
2022-08-05T22:26:27.327Z,1.70
2022-08-05T22:29:17.598Z,2.10
2022-08-05T22:32:06.473Z,1.80
2022-08-05T22:34:56.900Z,1.90
2022-08-05T22:37:58.683Z,2.23
2022-08-05T22:40:50.034Z,2.00
2022-08-05T22:43:41.873Z,2.30
2022-08-05T22:46:29.084Z,2.10
2022-08-05T22:50:17.275Z,2.13
2022-08-05T22:52:32.609Z,1.80
2022-08-05T22:55:22.569Z,2.40
2022-08-05T22:58:18.582Z,1.80
2022-08-05T23:01:15.673Z,2.20
2022-08-05T23:04:02.622Z,1.70
2022-08-05T23:06:49.500Z,1.83
2022-08-05T23:09:57.436Z,1.90
2022-08-05T23:12:43.862Z,1.70
2022-08-05T23:15:35.286Z,1.90
2022-08-05T23:18:24.512Z,1.77
2022-08-05T23:21:12.893Z,1.63
2022-08-05T23:24:03.868Z,1.70
2022-08-05T23:26:58.402Z,1.80
2022-08-05T23:29:47.720Z,1.70
2022-08-05T23:32:45.100Z,1.80
2022-08-05T23:35:34.202Z,1.43
2022-08-05T23:38:21.082Z,1.50
2022-08-05T23:41:07.718Z,1.40
2022-08-05T23:44:06.146Z,1.60
2022-08-05T23:46:59.325Z,1.70
2022-08-05T23:49:55.737Z,1.37
2022-08-05T23:52:49.517Z,1.40
2022-08-05T23:55:37.467Z,1.23
2022-08-05T23:58:32.022Z,1.27
